KHEY

Hanchey AHP (Fort Rucker) Heliport

Fort Rucker Ozark, Alabama, USA
METAR KHEY 162158Z AUTO 33003KT 10SM OVC030 13/09 A3015 RMK AO2 SLP212 T01280092
Observed Flight Rules
Dec-16 @ 21:58 UTC (15 minutes ago) Marginal Visual Flight Rules
Wind Visibility Clouds
330° at 3 knots 10 miles
  • Overcast at 3,000' AGL
Temperatures Readings
Current 13°C / 55°F
Dewpoint 9°C / 48°F
Humidity 77%
Altimeter 30.15" Hg
Pressure 1021.2 hPa
Elevation 97
METAR KHEY 162158Z AUTO 33003KT 10SM OVC030 13/09 A3015 RMK AO2 SLP212 T01280092
Observed Flight Rules
Dec-16 @ 21:58 UTC
(15 minutes ago)
MVFR
Wind Visibility
330° at 3 knots 10 miles
Clouds
  • Overcast at 3,000' AGL
Temperature Dewpoint
13°C / 55°F 9°C / 48°F
Humidity Altimeter Pressure
77% 30.15" Hg 1021.2 hPa